createdAt,value
2023-10-04T00:00:17.839Z,949.27
2023-10-04T00:01:18.175Z,949.29
2023-10-04T00:02:19.126Z,949.26
2023-10-04T00:03:19.442Z,949.29
2023-10-04T00:04:20.704Z,949.3
2023-10-04T00:05:21.231Z,949.3
2023-10-04T00:06:22.214Z,949.29
2023-10-04T00:07:23.189Z,949.26
2023-10-04T00:08:24.086Z,949.26
2023-10-04T00:09:24.862Z,949.26
2023-10-04T00:10:25.842Z,949.25
2023-10-04T00:11:26.813Z,949.24
2023-10-04T00:12:27.535Z,949.24
2023-10-04T00:14:28.423Z,949.3
2023-10-04T00:15:28.621Z,949.26
2023-10-04T00:16:29.304Z,949.22
2023-10-04T00:17:29.941Z,949.26
2023-10-04T00:18:30.981Z,949.24
2023-10-04T00:19:31.641Z,949.21
2023-10-04T00:20:32.736Z,949.27
2023-10-04T00:21:32.776Z,949.25
2023-10-04T00:22:32.943Z,949.25
2023-10-04T00:23:33.564Z,949.24
2023-10-04T00:24:34.532Z,949.21
2023-10-04T00:25:35.013Z,949.21
2023-10-04T00:26:35.972Z,949.22
2023-10-04T00:27:36.915Z,949.24
2023-10-04T00:28:37.860Z,949.19
2023-10-04T00:29:38.587Z,949.19
2023-10-04T00:30:39.001Z,949.18
2023-10-04T00:31:39.931Z,949.2
2023-10-04T00:32:41.031Z,949.23
2023-10-04T00:33:41.230Z,949.24
2023-10-04T00:34:41.930Z,949.22
2023-10-04T00:35:42.557Z,949.23
2023-10-04T00:36:43.384Z,949.25
2023-10-04T00:37:44.129Z,949.22
2023-10-04T00:38:44.647Z,949.2
2023-10-04T00:39:45.071Z,949.16
2023-10-04T00:40:45.239Z,949.18
2023-10-04T00:41:45.746Z,949.17
2023-10-04T00:42:46.439Z,949.17
2023-10-04T00:43:47.514Z,949.17
2023-10-04T00:44:48.041Z,949.17
2023-10-04T00:45:48.749Z,949.16
2023-10-04T00:46:49.302Z,949.17
2023-10-04T00:47:49.623Z,949.08
2023-10-04T00:48:50.135Z,949.08
2023-10-04T00:49:51.111Z,949.05
2023-10-04T00:50:51.826Z,949.08
2023-10-04T00:51:52.538Z,949.02
2023-10-04T00:52:53.571Z,949.05
2023-10-04T00:53:54.059Z,949.03
2023-10-04T00:54:54.683Z,949.01
2023-10-04T00:55:55.006Z,949.05
2023-10-04T00:56:55.821Z,948.98
2023-10-04T00:57:56.189Z,949.05
2023-10-04T00:58:56.538Z,949.02
2023-10-04T00:59:57.161Z,949.01
2023-10-04T01:00:57.627Z,949.04
2023-10-04T01:01:57.640Z,949.03
2023-10-04T01:02:58.734Z,949.04
2023-10-04T01:03:59.355Z,949.02
2023-10-04T01:04:59.376Z,949.03
2023-10-04T01:05:59.873Z,949.01
2023-10-04T01:07:00.878Z,949.02
2023-10-04T01:08:01.402Z,949.03
2023-10-04T01:09:02.504Z,949.03
2023-10-04T01:10:02.662Z,949.03
2023-10-04T01:11:03.689Z,949.01
2023-10-04T01:12:04.680Z,948.97
2023-10-04T01:13:05.541Z,948.98
2023-10-04T01:14:05.701Z,948.94
2023-10-04T01:15:05.996Z,948.99
2023-10-04T01:16:06.305Z,949.01
2023-10-04T01:17:07.160Z,948.97
2023-10-04T01:18:07.583Z,949.02
2023-10-04T01:19:07.895Z,949
2023-10-04T01:20:08.699Z,949
2023-10-04T01:21:09.497Z,948.98
2023-10-04T01:22:09.415Z,948.96
2023-10-04T01:23:09.958Z,948.95
2023-10-04T01:24:10.423Z,948.94
2023-10-04T01:30:15.801Z,948.83
2023-10-04T01:31:16.048Z,948.76
2023-10-04T01:32:16.932Z,948.75
2023-10-04T01:33:18.017Z,948.69
2023-10-04T01:34:18.863Z,948.69
2023-10-04T01:35:19.571Z,948.66
2023-10-04T01:36:20.328Z,948.65
2023-10-04T01:37:21.083Z,948.66
2023-10-04T01:38:21.980Z,948.7
2023-10-04T01:39:22.285Z,948.69
2023-10-04T01:40:22.947Z,948.72
2023-10-04T01:41:23.594Z,948.73
2023-10-04T01:42:24.121Z,948.73
2023-10-04T01:43:25.016Z,948.72
2023-10-04T01:44:25.158Z,948.72
2023-10-04T01:45:25.718Z,948.67
2023-10-04T01:46:25.891Z,948.7
2023-10-04T01:47:26.189Z,948.72
2023-10-04T01:49:27.227Z,948.71
2023-10-04T01:50:27.367Z,948.7
2023-10-04T01:51:27.533Z,948.67
2023-10-04T01:52:28.374Z,948.69
2023-10-04T01:53:29.322Z,948.71
2023-10-04T01:54:29.972Z,948.71
2023-10-04T01:55:30.334Z,948.74
2023-10-04T01:56:31.250Z,948.71
2023-10-04T01:57:31.800Z,948.73
2023-10-04T01:58:32.703Z,948.72
2023-10-04T01:59:33.068Z,948.7
2023-10-04T02:00:33.609Z,948.68
2023-10-04T02:01:33.762Z,948.67
2023-10-04T02:02:34.331Z,948.65
2023-10-04T02:03:34.781Z,948.65
2023-10-04T02:04:35.147Z,948.6
2023-10-04T02:05:35.471Z,948.6
2023-10-04T02:06:36.323Z,948.58
2023-10-04T02:07:36.890Z,948.6
2023-10-04T02:08:37.853Z,948.63
2023-10-04T02:09:38.681Z,948.58
2023-10-04T02:10:39.535Z,948.59
2023-10-04T02:11:40.211Z,948.6
2023-10-04T02:12:40.789Z,948.62
2023-10-04T02:13:41.751Z,948.58
2023-10-04T02:14:42.278Z,948.57
2023-10-04T02:15:42.789Z,948.6
2023-10-04T02:16:42.957Z,948.6
2023-10-04T02:17:43.277Z,948.58
2023-10-04T02:18:43.449Z,948.62
2023-10-04T02:19:43.685Z,948.57
2023-10-04T02:20:44.237Z,948.58
2023-10-04T02:21:45.288Z,948.56
2023-10-04T02:22:46.227Z,948.55
2023-10-04T02:23:46.624Z,948.53
2023-10-04T02:24:47.501Z,948.47
2023-10-04T02:25:48.390Z,948.5
2023-10-04T02:26:49.243Z,948.5
2023-10-04T02:27:49.502Z,948.52
2023-10-04T02:28:50.187Z,948.52
2023-10-04T02:29:50.360Z,948.55
2023-10-04T02:30:51.070Z,948.51
2023-10-04T02:31:51.165Z,948.49
2023-10-04T02:32:51.791Z,948.51
2023-10-04T02:33:51.999Z,948.49
2023-10-04T02:34:52.855Z,948.49
2023-10-04T02:35:53.779Z,948.44
2023-10-04T02:36:54.224Z,948.39
2023-10-04T02:37:54.932Z,948.4
2023-10-04T02:38:55.856Z,948.34
2023-10-04T02:39:56.443Z,948.29
2023-10-04T02:40:56.753Z,948.29
2023-10-04T02:41:57.026Z,948.24
2023-10-04T02:42:57.584Z,948.19
2023-10-04T02:43:58.367Z,948.19
2023-10-04T02:44:58.855Z,948.14
2023-10-04T02:45:59.428Z,948.15
2023-10-04T02:46:59.682Z,948.17
2023-10-04T02:48:00.309Z,948.24
2023-10-04T02:49:00.343Z,948.32
2023-10-04T02:50:00.541Z,948.41
2023-10-04T02:51:01.264Z,948.47
2023-10-04T02:52:02.191Z,948.53
2023-10-04T02:53:02.878Z,948.52
2023-10-04T02:54:03.838Z,948.54
2023-10-04T02:55:04.629Z,948.55
2023-10-04T02:56:05.170Z,948.47
2023-10-04T02:57:05.894Z,948.5
2023-10-04T02:58:06.004Z,948.51
2023-10-04T02:59:06.233Z,948.53
2023-10-04T03:00:07.052Z,948.52
2023-10-04T03:01:07.376Z,948.53
2023-10-04T03:02:07.486Z,948.47
2023-10-04T03:03:08.108Z,948.51
2023-10-04T03:04:08.426Z,948.51
2023-10-04T03:05:09.176Z,948.52
2023-10-04T03:06:09.873Z,948.53
2023-10-04T03:07:10.787Z,948.55
2023-10-04T03:08:11.532Z,948.51
2023-10-04T03:09:12.473Z,948.48
2023-10-04T03:10:12.770Z,948.4
2023-10-04T03:11:13.500Z,948.37
2023-10-04T03:12:14.052Z,948.42
2023-10-04T03:13:15.078Z,948.43
2023-10-04T03:14:16.116Z,948.41
2023-10-04T03:15:17.029Z,948.42
2023-10-04T03:16:17.992Z,948.46
2023-10-04T03:17:17.419Z,948.48
2023-10-04T03:18:18.130Z,948.5
2023-10-04T03:19:18.263Z,948.54
2023-10-04T03:20:19.133Z,948.54
2023-10-04T03:21:19.880Z,948.59
2023-10-04T03:22:20.525Z,948.6
2023-10-04T03:23:21.221Z,948.58
2023-10-04T03:24:21.379Z,948.55
2023-10-04T03:25:21.797Z,948.5
2023-10-04T03:26:21.989Z,948.51
2023-10-04T03:27:22.756Z,948.48
2023-10-04T03:28:23.121Z,948.49
2023-10-04T03:29:24.089Z,948.49
2023-10-04T03:30:24.414Z,948.51
2023-10-04T03:31:24.755Z,948.49
2023-10-04T03:32:25.704Z,948.5
2023-10-04T03:33:26.650Z,948.48
2023-10-04T03:34:27.362Z,948.5
2023-10-04T03:35:27.976Z,948.52
2023-10-04T03:36:28.578Z,948.53
2023-10-04T03:37:28.670Z,948.54
2023-10-04T03:38:29.574Z,948.56
2023-10-04T03:39:30.023Z,948.57
2023-10-04T03:40:30.994Z,948.55
2023-10-04T03:41:31.939Z,948.55
2023-10-04T03:42:32.577Z,948.54
2023-10-04T03:43:33.481Z,948.51
2023-10-04T03:44:34.194Z,948.5
2023-10-04T03:45:34.401Z,948.48
2023-10-04T03:46:35.371Z,948.45
2023-10-04T03:47:35.811Z,948.42
2023-10-04T03:48:36.645Z,948.4
2023-10-04T03:49:36.857Z,948.39
2023-10-04T03:50:37.683Z,948.38
2023-10-04T03:51:38.267Z,948.41
2023-10-04T03:52:38.934Z,948.41
2023-10-04T03:53:39.465Z,948.42
2023-10-04T03:54:40.267Z,948.47
2023-10-04T03:55:40.824Z,948.52
2023-10-04T03:56:41.519Z,948.54
2023-10-04T03:57:42.294Z,948.53
2023-10-04T03:58:42.847Z,948.56
2023-10-04T03:59:43.150Z,948.61
2023-10-04T04:00:43.309Z,948.56
2023-10-04T04:01:43.481Z,948.59
2023-10-04T04:02:44.493Z,948.54
2023-10-04T04:03:44.934Z,948.6
2023-10-04T04:04:45.642Z,948.58
2023-10-04T04:05:46.113Z,948.59
2023-10-04T04:06:46.263Z,948.64
2023-10-04T04:07:46.814Z,948.61
2023-10-04T04:08:46.939Z,948.65
2023-10-04T04:09:47.621Z,948.65
2023-10-04T04:10:48.568Z,948.61
2023-10-04T04:11:49.045Z,948.6
2023-10-04T04:12:49.966Z,948.62
2023-10-04T04:13:50.166Z,948.64
2023-10-04T04:14:50.651Z,948.66
2023-10-04T04:15:51.596Z,948.71
2023-10-04T04:16:52.424Z,948.73
2023-10-04T04:17:52.774Z,948.73
2023-10-04T04:18:53.794Z,948.78
2023-10-04T04:19:54.734Z,948.77
2023-10-04T04:20:55.810Z,948.73
2023-10-04T04:21:55.997Z,948.74
2023-10-04T04:22:56.636Z,948.72
2023-10-04T04:23:57.393Z,948.71
2023-10-04T04:24:58.610Z,948.73
2023-10-04T04:25:59.347Z,948.73
2023-10-04T04:27:00.069Z,948.76
2023-10-04T04:28:00.280Z,948.74
2023-10-04T04:29:00.987Z,948.77
2023-10-04T04:30:01.315Z,948.78
2023-10-04T04:31:02.019Z,948.81
2023-10-04T04:32:03.085Z,948.81
2023-10-04T04:33:03.988Z,948.8
2023-10-04T04:34:04.746Z,948.81
2023-10-04T04:35:05.461Z,948.83
2023-10-04T04:36:06.145Z,948.8
2023-10-04T04:37:06.207Z,948.81
2023-10-04T04:38:06.915Z,948.82
2023-10-04T04:39:08.116Z,948.8
2023-10-04T04:40:08.266Z,948.83
2023-10-04T04:41:08.993Z,948.84
2023-10-04T04:42:09.996Z,948.84
2023-10-04T04:43:10.091Z,948.84
2023-10-04T04:44:10.404Z,948.84
2023-10-04T04:45:10.964Z,948.79
2023-10-04T04:46:11.079Z,948.78
2023-10-04T04:47:11.282Z,948.79
2023-10-04T04:48:12.313Z,948.77
2023-10-04T04:49:13.266Z,948.75
2023-10-04T04:50:13.783Z,948.76
2023-10-04T04:51:14.400Z,948.77
2023-10-04T04:52:14.530Z,948.85
2023-10-04T04:53:14.805Z,948.82
2023-10-04T04:54:15.009Z,948.81
2023-10-04T04:55:15.315Z,948.83
2023-10-04T04:56:16.333Z,948.81
2023-10-04T04:57:16.613Z,948.75
2023-10-04T04:58:17.397Z,948.75
2023-10-04T04:59:18.280Z,948.77
2023-10-04T05:00:19.238Z,948.8
2023-10-04T05:01:19.314Z,948.82
2023-10-04T05:02:20.324Z,948.79
2023-10-04T05:03:20.425Z,948.81
2023-10-04T05:04:21.257Z,948.74
2023-10-04T05:05:22.108Z,948.78
2023-10-04T05:06:22.889Z,948.74
2023-10-04T05:07:23.773Z,948.73
2023-10-04T05:08:24.330Z,948.73
2023-10-04T05:09:24.623Z,948.74
2023-10-04T05:10:25.571Z,948.75
2023-10-04T05:11:25.879Z,948.75
2023-10-04T05:12:26.839Z,948.81
2023-10-04T05:13:27.620Z,948.76
2023-10-04T05:14:28.101Z,948.77
2023-10-04T05:15:29.198Z,948.79
2023-10-04T05:16:29.342Z,948.8
2023-10-04T05:17:30.230Z,948.75
2023-10-04T05:18:30.999Z,948.8
2023-10-04T05:19:31.203Z,948.8
2023-10-04T05:20:31.928Z,948.81
2023-10-04T05:21:32.588Z,948.82
2023-10-04T05:22:32.944Z,948.85
2023-10-04T05:23:33.619Z,948.83
2023-10-04T05:24:34.148Z,948.84
2023-10-04T05:25:35.019Z,948.83
2023-10-04T05:26:35.732Z,948.83
2023-10-04T05:27:36.695Z,948.86
2023-10-04T05:28:37.726Z,948.85
2023-10-04T05:29:38.762Z,948.83
2023-10-04T05:30:39.338Z,948.86
2023-10-04T05:31:40.073Z,948.87
2023-10-04T05:32:41.128Z,948.88
2023-10-04T05:33:42.049Z,948.89
2023-10-04T05:34:42.600Z,948.85
2023-10-04T05:35:43.097Z,948.88
2023-10-04T05:36:44.049Z,948.84
2023-10-04T05:37:44.145Z,948.87
2023-10-04T05:38:44.907Z,948.9
2023-10-04T05:39:45.681Z,948.86
2023-10-04T05:40:46.513Z,948.92
2023-10-04T05:41:47.464Z,948.87
2023-10-04T05:42:47.587Z,948.94
2023-10-04T05:43:48.104Z,948.92
2023-10-04T05:44:48.719Z,948.97
2023-10-04T05:45:49.545Z,948.97
2023-10-04T05:46:49.799Z,949.03
2023-10-04T05:47:50.592Z,949.05
2023-10-04T05:48:50.730Z,949.06
2023-10-04T05:49:51.665Z,949.06
2023-10-04T05:50:52.295Z,949.1
2023-10-04T05:51:52.468Z,949.1
2023-10-04T05:52:53.208Z,949.08
2023-10-04T05:53:54.153Z,949.16
2023-10-04T05:54:54.291Z,949.13
2023-10-04T05:55:55.294Z,949.14
2023-10-04T05:56:55.555Z,949.13
2023-10-04T05:57:56.375Z,949.17
2023-10-04T05:58:57.102Z,949.13
2023-10-04T05:59:57.301Z,949.18
2023-10-04T06:00:58.184Z,949.21
2023-10-04T06:01:58.997Z,949.22
2023-10-04T06:02:59.579Z,949.24
2023-10-04T06:03:59.784Z,949.25
2023-10-04T06:05:00.615Z,949.26
2023-10-04T06:06:00.818Z,949.24
2023-10-04T06:07:01.676Z,949.28
2023-10-04T06:08:02.583Z,949.3
2023-10-04T06:09:03.446Z,949.34
2023-10-04T06:10:03.420Z,949.37
2023-10-04T06:11:04.097Z,949.41
2023-10-04T06:12:04.243Z,949.4
2023-10-04T06:13:05.165Z,949.39
2023-10-04T06:14:06.245Z,949.4
2023-10-04T06:15:07.065Z,949.47
2023-10-04T06:16:08.164Z,949.5
2023-10-04T06:17:08.337Z,949.48
2023-10-04T06:18:08.908Z,949.49
2023-10-04T06:19:16.172Z,949.52
2023-10-04T06:20:10.209Z,949.54
2023-10-04T06:21:10.567Z,949.52
2023-10-04T06:22:11.039Z,949.52
2023-10-04T06:23:11.537Z,949.55
2023-10-04T06:24:13.295Z,949.54
2023-10-04T06:25:13.424Z,949.53
2023-10-04T06:26:14.283Z,949.55
2023-10-04T06:27:15.126Z,949.6
2023-10-04T06:28:15.841Z,949.55
2023-10-04T06:29:16.441Z,949.55
2023-10-04T06:30:17.725Z,949.57
2023-10-04T06:31:17.554Z,949.58
2023-10-04T06:32:18.496Z,949.62
2023-10-04T06:33:18.649Z,949.63
2023-10-04T06:34:19.448Z,949.64
2023-10-04T06:35:19.874Z,949.66
2023-10-04T06:36:20.408Z,949.68
2023-10-04T06:37:21.290Z,949.69
2023-10-04T06:38:22.352Z,949.66
2023-10-04T06:39:23.333Z,949.63
2023-10-04T06:40:24.433Z,949.6
2023-10-04T06:41:25.112Z,949.66
2023-10-04T06:42:25.646Z,949.62
2023-10-04T06:43:26.706Z,949.6
2023-10-04T06:44:27.494Z,949.63
2023-10-04T06:45:28.003Z,949.65
2023-10-04T06:46:28.384Z,949.68
2023-10-04T06:47:28.849Z,949.65
2023-10-04T06:48:29.001Z,949.67
2023-10-04T06:49:29.122Z,949.69
2023-10-04T06:50:29.964Z,949.71
2023-10-04T06:51:30.299Z,949.68
2023-10-04T06:52:30.767Z,949.74
2023-10-04T06:53:31.280Z,949.69
2023-10-04T06:54:31.577Z,949.69
2023-10-04T06:55:32.021Z,949.69
2023-10-04T06:56:32.871Z,949.69
2023-10-04T06:57:33.012Z,949.69
2023-10-04T06:58:33.930Z,949.72
2023-10-04T06:59:34.843Z,949.67
2023-10-04T07:00:35.815Z,949.75
2023-10-04T07:01:36.523Z,949.75
2023-10-04T07:02:37.540Z,949.78
2023-10-04T07:03:37.697Z,949.79
2023-10-04T07:04:38.181Z,949.73
2023-10-04T07:05:38.483Z,949.77
2023-10-04T07:06:39.355Z,949.75
2023-10-04T07:07:39.510Z,949.76
2023-10-04T07:08:40.552Z,949.77
2023-10-04T07:09:41.358Z,949.74
2023-10-04T07:10:41.572Z,949.78
2023-10-04T07:11:41.851Z,949.78
2023-10-04T07:12:42.629Z,949.74
2023-10-04T07:13:42.717Z,949.8
2023-10-04T07:14:43.258Z,949.8
2023-10-04T07:15:43.883Z,949.79
2023-10-04T07:16:44.270Z,949.82
2023-10-04T07:17:45.260Z,949.81
2023-10-04T07:18:46.187Z,949.83
2023-10-04T07:19:46.371Z,949.85
2023-10-04T07:20:47.233Z,949.85
2023-10-04T07:21:48.160Z,949.84
2023-10-04T07:22:48.356Z,949.84
2023-10-04T07:23:48.773Z,949.83
2023-10-04T07:24:49.497Z,949.83
2023-10-04T07:25:50.475Z,949.82
2023-10-04T07:26:50.894Z,949.81
2023-10-04T07:27:51.454Z,949.82
2023-10-04T07:28:52.037Z,949.81
2023-10-04T07:29:52.264Z,949.8
2023-10-04T07:30:53.323Z,949.8
2023-10-04T07:31:53.453Z,949.82
2023-10-04T07:32:54.282Z,949.82
2023-10-04T07:33:55.005Z,949.84
2023-10-04T07:34:56.005Z,949.86
2023-10-04T07:35:56.148Z,949.86
2023-10-04T07:36:57.119Z,949.89
2023-10-04T07:37:59.112Z,949.89
2023-10-04T07:38:58.436Z,949.87
2023-10-04T07:39:58.854Z,949.86
2023-10-04T07:40:59.501Z,949.82
2023-10-04T07:42:00.492Z,949.82
2023-10-04T07:43:01.708Z,949.81
2023-10-04T07:44:02.091Z,949.8
2023-10-04T07:45:02.492Z,949.77
2023-10-04T07:46:03.357Z,949.78
2023-10-04T07:47:03.709Z,949.79
2023-10-04T07:48:04.411Z,949.79
2023-10-04T07:49:05.098Z,949.8
2023-10-04T07:50:05.929Z,949.8
2023-10-04T07:51:06.464Z,949.8
2023-10-04T07:52:06.978Z,949.8
2023-10-04T07:53:07.958Z,949.83
2023-10-04T07:54:08.717Z,949.84
2023-10-04T07:55:09.595Z,949.85
2023-10-04T07:56:09.759Z,949.83
2023-10-04T07:57:10.835Z,949.81
2023-10-04T07:58:11.706Z,949.81
2023-10-04T07:59:12.468Z,949.83
2023-10-04T08:00:12.649Z,949.79
2023-10-04T08:01:14.823Z,949.75
2023-10-04T08:02:14.213Z,949.75
2023-10-04T08:03:14.478Z,949.76
2023-10-04T08:04:15.315Z,949.75
2023-10-04T08:05:15.997Z,949.75
2023-10-04T08:06:16.911Z,949.75
2023-10-04T08:07:17.850Z,949.77
2023-10-04T08:08:18.004Z,949.74
2023-10-04T08:09:18.336Z,949.76
2023-10-04T08:10:18.642Z,949.72
2023-10-04T08:11:19.727Z,949.74
2023-10-04T08:12:20.735Z,949.74
2023-10-04T08:13:20.887Z,949.74
2023-10-04T08:14:21.243Z,949.74
2023-10-04T08:15:21.503Z,949.72
2023-10-04T08:16:21.556Z,949.72
2023-10-04T08:17:22.081Z,949.73
2023-10-04T08:18:22.674Z,949.71
2023-10-04T08:19:23.090Z,949.72
2023-10-04T08:20:23.845Z,949.76
2023-10-04T08:21:24.542Z,949.75
2023-10-04T08:22:25.643Z,949.75
2023-10-04T08:23:26.584Z,949.68
2023-10-04T08:24:27.475Z,949.71
2023-10-04T08:25:27.843Z,949.7
2023-10-04T08:26:28.032Z,949.71
2023-10-04T08:27:28.512Z,949.69
2023-10-04T08:28:29.389Z,949.66
2023-10-04T08:29:29.990Z,949.66
2023-10-04T08:30:30.231Z,949.65
2023-10-04T08:31:30.782Z,949.63
2023-10-04T08:32:31.160Z,949.56
2023-10-04T08:33:31.874Z,949.6
2023-10-04T08:34:32.867Z,949.58
2023-10-04T08:35:33.910Z,949.56
2023-10-04T08:36:34.889Z,949.59
2023-10-04T08:37:35.226Z,949.53
2023-10-04T08:38:36.196Z,949.53
2023-10-04T08:39:37.224Z,949.56
2023-10-04T08:40:38.202Z,949.54
2023-10-04T08:41:39.107Z,949.53
2023-10-04T08:42:40.067Z,949.57
2023-10-04T08:43:40.153Z,949.54
2023-10-04T08:44:40.323Z,949.52
2023-10-04T08:45:41.016Z,949.49
2023-10-04T08:46:41.050Z,949.48
2023-10-04T08:47:41.235Z,949.44
2023-10-04T08:48:41.503Z,949.44
2023-10-04T08:49:42.180Z,949.45
2023-10-04T08:50:42.260Z,949.4
2023-10-04T08:51:42.827Z,949.37
2023-10-04T08:52:43.841Z,949.41
2023-10-04T08:53:44.004Z,949.32
2023-10-04T08:54:44.305Z,949.32
2023-10-04T08:55:44.959Z,949.25
2023-10-04T08:56:45.889Z,949.28
2023-10-04T08:57:46.966Z,949.27
2023-10-04T08:58:47.014Z,949.29
2023-10-04T08:59:47.961Z,949.34
2023-10-04T09:00:48.416Z,949.33
2023-10-04T09:01:49.054Z,949.34
2023-10-04T09:02:50.113Z,949.33
2023-10-04T09:03:50.456Z,949.37
2023-10-04T09:04:50.730Z,949.34
2023-10-04T09:05:51.122Z,949.35
2023-10-04T09:06:51.283Z,949.32
2023-10-04T09:07:52.359Z,949.33
2023-10-04T09:08:52.555Z,949.32
2023-10-04T09:09:53.540Z,949.32
2023-10-04T09:10:54.136Z,949.28
2023-10-04T09:11:54.385Z,949.31
2023-10-04T09:12:58.653Z,949.29
2023-10-04T09:13:55.523Z,949.33
2023-10-04T09:14:56.238Z,949.33
2023-10-04T09:15:57.202Z,949.3
2023-10-04T09:16:58.160Z,949.31
2023-10-04T09:17:59.061Z,949.3
2023-10-04T09:18:59.200Z,949.3
2023-10-04T09:19:59.456Z,949.24
2023-10-04T09:20:59.955Z,949.26
2023-10-04T09:22:00.379Z,949.28
2023-10-04T09:23:01.371Z,949.28
2023-10-04T09:24:02.557Z,949.31
2023-10-04T09:25:02.919Z,949.3
2023-10-04T09:26:03.741Z,949.31
2023-10-04T09:27:04.385Z,949.3
2023-10-04T09:28:05.418Z,949.32
2023-10-04T09:29:05.574Z,949.27
2023-10-04T09:30:05.883Z,949.28
2023-10-04T09:31:06.397Z,949.29
2023-10-04T09:32:06.919Z,949.22
2023-10-04T09:33:07.670Z,949.24
2023-10-04T09:34:08.688Z,949.27
2023-10-04T09:35:08.914Z,949.24
2023-10-04T09:36:09.916Z,949.19
2023-10-04T09:37:10.289Z,949.22
2023-10-04T09:38:10.820Z,949.22
2023-10-04T09:39:11.356Z,949.25
2023-10-04T09:40:11.591Z,949.19
2023-10-04T09:41:12.208Z,949.2
2023-10-04T09:42:12.710Z,949.22
2023-10-04T09:43:12.908Z,949.23
2023-10-04T09:44:13.230Z,949.24
2023-10-04T09:45:14.219Z,949.26
2023-10-04T09:46:14.521Z,949.29
2023-10-04T09:47:15.163Z,949.26
2023-10-04T09:48:15.583Z,949.29
2023-10-04T09:49:15.883Z,949.34
2023-10-04T09:50:16.425Z,949.39
2023-10-04T09:51:16.742Z,949.35
2023-10-04T09:52:17.519Z,949.38
2023-10-04T09:53:18.091Z,949.43
2023-10-04T09:54:19.141Z,949.43
2023-10-04T09:55:19.247Z,949.39
2023-10-04T09:56:19.738Z,949.44
2023-10-04T09:57:20.847Z,949.46
2023-10-04T09:58:21.824Z,949.42
2023-10-04T09:59:22.591Z,949.42
2023-10-04T10:00:23.380Z,949.38
2023-10-04T10:01:24.091Z,949.4
2023-10-04T10:02:24.299Z,949.35
2023-10-04T10:03:25.326Z,949.41
2023-10-04T10:04:26.318Z,949.35
2023-10-04T10:05:27.152Z,949.35
2023-10-04T10:06:28.809Z,949.36
2023-10-04T10:07:28.934Z,949.35
2023-10-04T10:08:29.938Z,949.3
2023-10-04T10:09:30.277Z,949.32
2023-10-04T10:10:30.712Z,949.31
2023-10-04T10:11:30.871Z,949.27
2023-10-04T10:12:31.187Z,949.3
2023-10-04T10:13:31.530Z,949.28
2023-10-04T10:14:32.052Z,949.26
2023-10-04T10:15:32.447Z,949.24
2023-10-04T10:16:33.573Z,949.24
2023-10-04T10:17:33.145Z,949.19
2023-10-04T10:19:34.137Z,949.15
2023-10-04T10:20:34.989Z,949.13
2023-10-04T10:21:35.457Z,949.12
2023-10-04T10:22:36.178Z,949.17
2023-10-04T10:23:36.762Z,949.21
2023-10-04T10:24:37.578Z,949.16
2023-10-04T10:25:37.855Z,949.16
2023-10-04T10:26:39.535Z,949.15
2023-10-04T10:27:39.545Z,949.14
2023-10-04T10:28:39.842Z,949.12
2023-10-04T10:29:40.912Z,949.13
2023-10-04T10:30:41.873Z,949.12
2023-10-04T10:31:42.944Z,949.06
2023-10-04T10:32:43.475Z,949.05
2023-10-04T10:33:44.078Z,949.03
2023-10-04T10:34:44.125Z,949.02
2023-10-04T10:35:44.292Z,949.05
2023-10-04T10:36:44.722Z,949.05
2023-10-04T10:37:45.127Z,948.99
2023-10-04T10:38:45.885Z,948.97
2023-10-04T10:39:46.281Z,948.93
2023-10-04T10:40:46.772Z,948.93
2023-10-04T10:41:47.741Z,948.94
2023-10-04T10:42:48.702Z,948.91
2023-10-04T10:44:00.661Z,948.88
2023-10-04T10:44:49.348Z,948.82
2023-10-04T10:45:49.833Z,948.74
2023-10-04T10:46:50.005Z,948.76
2023-10-04T10:47:59.369Z,948.75
2023-10-04T10:48:51.144Z,948.72
2023-10-04T10:49:51.973Z,948.69
2023-10-04T10:50:52.590Z,948.65
2023-10-04T10:51:53.612Z,948.64
2023-10-04T10:52:54.361Z,948.63
2023-10-04T10:53:55.290Z,948.68
2023-10-04T10:54:56.331Z,948.62
2023-10-04T10:55:57.043Z,948.61
2023-10-04T10:56:57.687Z,948.62
2023-10-04T10:57:58.743Z,948.59
2023-10-04T10:58:59.647Z,948.53
2023-10-04T11:00:00.344Z,948.58
2023-10-04T11:01:00.991Z,948.55
2023-10-04T11:02:01.867Z,948.53
2023-10-04T11:03:03.030Z,948.49
2023-10-04T11:04:03.834Z,948.52
2023-10-04T11:05:04.558Z,948.48
2023-10-04T11:06:05.647Z,948.52
2023-10-04T11:07:05.740Z,948.51
2023-10-04T11:08:06.062Z,948.53
2023-10-04T11:09:06.584Z,948.49
2023-10-04T11:10:06.916Z,948.48
2023-10-04T11:11:07.020Z,948.43
2023-10-04T11:12:07.844Z,948.43
2023-10-04T11:13:08.950Z,948.37
2023-10-04T11:14:09.236Z,948.37
2023-10-04T11:15:10.027Z,948.34
2023-10-04T11:16:11.129Z,948.3
2023-10-04T11:17:11.270Z,948.29
2023-10-04T11:18:12.202Z,948.28
2023-10-04T11:19:12.471Z,948.27
2023-10-04T11:20:12.778Z,948.22
2023-10-04T11:21:13.250Z,948.18
2023-10-04T11:22:14.205Z,948.22
2023-10-04T11:23:14.726Z,948.2
2023-10-04T11:24:15.455Z,948.21
2023-10-04T11:25:16.240Z,948.19
2023-10-04T11:26:16.637Z,948.14
2023-10-04T11:27:17.442Z,948.19
2023-10-04T11:28:17.678Z,948.14
2023-10-04T11:29:18.490Z,948.09
2023-10-04T11:30:19.384Z,948.12
2023-10-04T11:31:20.056Z,948.05
2023-10-04T11:32:20.505Z,948.05
2023-10-04T11:33:21.269Z,948.06
2023-10-04T11:34:22.313Z,948.05
2023-10-04T11:35:22.969Z,948.04
2023-10-04T11:36:24.155Z,948.06
2023-10-04T11:37:24.312Z,948.04
2023-10-04T11:38:24.706Z,948.05
2023-10-04T11:39:24.911Z,948.02
2023-10-04T11:40:25.213Z,948.04
2023-10-04T11:41:25.881Z,947.96
2023-10-04T11:42:26.897Z,948
2023-10-04T11:43:27.030Z,947.97
2023-10-04T11:44:27.978Z,947.95
2023-10-04T11:45:28.589Z,947.98
2023-10-04T11:46:28.879Z,947.94
2023-10-04T11:47:29.439Z,947.94
2023-10-04T11:48:31.707Z,947.95
2023-10-04T11:49:30.833Z,947.95
2023-10-04T11:50:31.698Z,947.94
2023-10-04T11:51:32.122Z,947.94
2023-10-04T11:52:32.419Z,947.94
2023-10-04T11:53:33.363Z,947.95
2023-10-04T11:54:34.385Z,947.97
2023-10-04T11:55:34.794Z,947.95
2023-10-04T11:56:35.724Z,947.99
2023-10-04T11:57:36.022Z,947.98
2023-10-04T11:58:36.180Z,948.01
2023-10-04T11:59:36.757Z,947.98
2023-10-04T12:00:37.515Z,947.99
2023-10-04T12:01:38.425Z,948
2023-10-04T12:02:38.573Z,947.98
2023-10-04T12:03:38.887Z,947.97
2023-10-04T12:04:39.655Z,947.96
2023-10-04T12:05:39.733Z,948
2023-10-04T12:06:40.713Z,948
2023-10-04T12:07:40.913Z,948.01
2023-10-04T12:08:41.879Z,948.02
2023-10-04T12:09:42.170Z,948.07
2023-10-04T12:10:42.753Z,948.06
2023-10-04T12:11:43.155Z,948.04
2023-10-04T12:12:43.659Z,948.1
2023-10-04T12:13:43.965Z,948.07
2023-10-04T12:14:44.899Z,948.14
2023-10-04T12:15:45.697Z,948.11
2023-10-04T12:16:46.755Z,948.08
2023-10-04T12:17:47.993Z,948.09
2023-10-04T12:18:48.279Z,948.06
2023-10-04T12:19:49.031Z,948.12
2023-10-04T12:20:49.976Z,948.08
2023-10-04T12:21:50.616Z,948.14
2023-10-04T12:22:50.917Z,948.1
2023-10-04T12:23:51.711Z,948.04
2023-10-04T12:24:52.388Z,948.05
2023-10-04T12:25:52.735Z,948.03
2023-10-04T12:26:53.581Z,948.02
2023-10-04T12:27:54.680Z,947.99
2023-10-04T12:28:54.842Z,947.98
2023-10-04T12:29:55.594Z,947.95
2023-10-04T12:30:56.261Z,947.98
2023-10-04T12:31:56.675Z,947.94
2023-10-04T12:32:57.429Z,948
2023-10-04T12:33:57.939Z,947.98
2023-10-04T12:34:58.938Z,947.97
2023-10-04T12:35:59.595Z,947.95
2023-10-04T12:37:00.288Z,947.93
2023-10-04T12:38:01.413Z,947.94
2023-10-04T12:39:02.174Z,947.99
2023-10-04T12:40:02.499Z,947.98
2023-10-04T12:41:02.875Z,947.99
2023-10-04T12:42:03.131Z,947.92
2023-10-04T12:43:03.894Z,947.94
2023-10-04T12:44:04.622Z,947.96
2023-10-04T12:45:04.566Z,947.91
2023-10-04T12:46:05.327Z,947.93
2023-10-04T12:47:06.209Z,947.93